sensor_id;sensor_type;location;lat;lon;timestamp;pressure;altitude;pressure_sealevel;temperature;humidity
25084;BME280;13075;55.682;37.564;2023-07-20T00:00:22;98096.75;;;22.64;100.00
25084;BME280;13075;55.682;37.564;2023-07-20T00:02:49;98099.88;;;22.49;100.00
25084;BME280;13075;55.682;37.564;2023-07-20T00:05:15;98101.75;;;23.02;96.90
25084;BME280;13075;55.682;37.564;2023-07-20T00:07:43;98098.03;;;22.36;100.00
25084;BME280;13075;55.682;37.564;2023-07-20T00:10:08;98103.13;;;22.60;99.39
25084;BME280;13075;55.682;37.564;2023-07-20T00:12:34;98105.38;;;22.35;100.00
25084;BME280;13075;55.682;37.564;2023-07-20T00:15:00;98101.22;;;22.38;100.00
25084;BME280;13075;55.682;37.564;2023-07-20T00:17:25;98109.00;;;22.45;100.00
25084;BME280;13075;55.682;37.564;2023-07-20T00:19:50;98106.19;;;22.36;100.00
25084;BME280;13075;55.682;37.564;2023-07-20T00:22:16;98102.56;;;22.18;100.00
25084;BME280;13075;55.682;37.564;2023-07-20T00:24:41;98101.81;;;22.26;100.00
25084;BME280;13075;55.682;37.564;2023-07-20T00:27:07;98116.81;;;22.15;100.00
25084;BME280;13075;55.682;37.564;2023-07-20T00:29:32;98118.34;;;21.72;100.00
25084;BME280;13075;55.682;37.564;2023-07-20T00:31:58;98123.75;;;22.21;100.00
25084;BME280;13075;55.682;37.564;2023-07-20T00:34:23;98119.13;;;21.86;100.00
25084;BME280;13075;55.682;37.564;2023-07-20T00:36:49;98118.72;;;21.93;100.00
25084;BME280;13075;55.682;37.564;2023-07-20T00:39:15;98119.53;;;22.15;100.00
25084;BME280;13075;55.682;37.564;2023-07-20T00:41:40;98110.31;;;22.03;100.00
25084;BME280;13075;55.682;37.564;2023-07-20T00:44:06;98124.41;;;21.69;100.00
25084;BME280;13075;55.682;37.564;2023-07-20T00:46:31;98126.63;;;21.67;100.00
25084;BME280;13075;55.682;37.564;2023-07-20T00:48:59;98122.94;;;21.85;100.00
25084;BME280;13075;55.682;37.564;2023-07-20T00:51:25;98116.22;;;21.69;100.00
25084;BME280;13075;55.682;37.564;2023-07-20T00:53:51;98123.06;;;21.44;100.00
25084;BME280;13075;55.682;37.564;2023-07-20T00:56:17;98124.06;;;21.84;100.00
25084;BME280;13075;55.682;37.564;2023-07-20T00:58:43;98123.09;;;21.66;100.00
25084;BME280;13075;55.682;37.564;2023-07-20T01:01:09;98108.97;;;21.78;100.00
25084;BME280;13075;55.682;37.564;2023-07-20T01:03:35;98121.94;;;21.95;100.00
25084;BME280;13075;55.682;37.564;2023-07-20T01:08:33;98122.13;;;21.85;100.00
25084;BME280;13075;55.682;37.564;2023-07-20T01:11:10;98120.81;;;21.96;100.00
25084;BME280;13075;55.682;37.564;2023-07-20T01:13:38;98117.66;;;22.02;100.00
25084;BME280;13075;55.682;37.564;2023-07-20T01:16:04;98128.19;;;22.17;100.00
25084;BME280;13075;55.682;37.564;2023-07-20T01:18:29;98118.97;;;22.05;100.00
25084;BME280;13075;55.682;37.564;2023-07-20T01:21:08;98125.34;;;21.51;100.00
25084;BME280;13075;55.682;37.564;2023-07-20T01:31:31;98126.75;;;21.48;100.00
25084;BME280;13075;55.682;37.564;2023-07-20T01:34:00;98130.41;;;21.80;100.00
25084;BME280;13075;55.682;37.564;2023-07-20T01:36:26;98129.81;;;21.83;100.00
25084;BME280;13075;55.682;37.564;2023-07-20T01:38:53;98131.41;;;21.97;100.00
25084;BME280;13075;55.682;37.564;2023-07-20T01:41:22;98134.41;;;21.60;100.00
25084;BME280;13075;55.682;37.564;2023-07-20T01:43:47;98116.41;;;21.86;100.00
25084;BME280;13075;55.682;37.564;2023-07-20T01:46:14;98129.34;;;21.67;100.00
25084;BME280;13075;55.682;37.564;2023-07-20T01:48:40;98132.44;;;21.74;100.00
25084;BME280;13075;55.682;37.564;2023-07-20T01:51:07;98135.34;;;21.91;100.00
25084;BME280;13075;55.682;37.564;2023-07-20T01:53:32;98125.53;;;22.04;100.00
25084;BME280;13075;55.682;37.564;2023-07-20T01:55:58;98124.72;;;22.03;100.00
25084;BME280;13075;55.682;37.564;2023-07-20T01:58:23;98128.09;;;21.87;100.00
25084;BME280;13075;55.682;37.564;2023-07-20T02:00:49;98126.03;;;22.06;100.00
25084;BME280;13075;55.682;37.564;2023-07-20T02:03:15;98133.28;;;22.10;100.00
25084;BME280;13075;55.682;37.564;2023-07-20T02:05:43;98128.81;;;21.79;100.00
25084;BME280;13075;55.682;37.564;2023-07-20T02:08:09;98126.84;;;22.06;100.00
25084;BME280;13075;55.682;37.564;2023-07-20T02:10:34;98135.03;;;21.57;100.00
25084;BME280;13075;55.682;37.564;2023-07-20T02:13:00;98125.59;;;21.77;100.00
25084;BME280;13075;55.682;37.564;2023-07-20T02:15:26;98132.53;;;21.47;100.00
25084;BME280;13075;55.682;37.564;2023-07-20T02:17:52;98133.91;;;21.58;100.00
25084;BME280;13075;55.682;37.564;2023-07-20T02:20:17;98134.34;;;21.38;100.00
25084;BME280;13075;55.682;37.564;2023-07-20T02:22:44;98133.59;;;21.59;100.00
25084;BME280;13075;55.682;37.564;2023-07-20T02:25:10;98132.69;;;21.64;100.00
25084;BME280;13075;55.682;37.564;2023-07-20T02:27:36;98137.75;;;22.06;100.00
25084;BME280;13075;55.682;37.564;2023-07-20T02:30:02;98135.00;;;22.06;100.00
25084;BME280;13075;55.682;37.564;2023-07-20T02:32:29;98132.44;;;21.74;100.00
25084;BME280;13075;55.682;37.564;2023-07-20T02:34:55;98135.00;;;22.06;100.00
25084;BME280;13075;55.682;37.564;2023-07-20T02:37:21;98138.84;;;22.27;100.00
25084;BME280;13075;55.682;37.564;2023-07-20T02:39:47;98136.00;;;22.10;100.00
25084;BME280;13075;55.682;37.564;2023-07-20T02:42:12;98137.47;;;21.94;100.00
25084;BME280;13075;55.682;37.564;2023-07-20T02:44:38;98147.84;;;21.92;100.00
25084;BME280;13075;55.682;37.564;2023-07-20T02:47:04;98141.50;;;22.19;100.00
25084;BME280;13075;55.682;37.564;2023-07-20T02:49:29;98141.59;;;21.92;100.00
25084;BME280;13075;55.682;37.564;2023-07-20T02:51:54;98146.19;;;22.05;100.00
25084;BME280;13075;55.682;37.564;2023-07-20T02:54:20;98145.50;;;21.99;100.00
25084;BME280;13075;55.682;37.564;2023-07-20T02:56:46;98149.47;;;21.93;100.00
25084;BME280;13075;55.682;37.564;2023-07-20T02:59:11;98145.03;;;21.97;100.00
25084;BME280;13075;55.682;37.564;2023-07-20T03:01:37;98153.84;;;22.16;100.00
25084;BME280;13075;55.682;37.564;2023-07-20T03:04:02;98163.00;;;22.43;100.00
25084;BME280;13075;55.682;37.564;2023-07-20T03:06:29;98153.94;;;22.56;100.00
25084;BME280;13075;55.682;37.564;2023-07-20T03:08:54;98160.75;;;22.22;100.00
25084;BME280;13075;55.682;37.564;2023-07-20T03:11:20;98160.66;;;22.50;100.00
25084;BME280;13075;55.682;37.564;2023-07-20T03:13:46;98159.03;;;22.26;100.00
25084;BME280;13075;55.682;37.564;2023-07-20T03:16:13;98155.88;;;22.55;100.00
25084;BME280;13075;55.682;37.564;2023-07-20T03:18:41;98160.31;;;22.51;100.00
25084;BME280;13075;55.682;37.564;2023-07-20T03:21:07;98166.97;;;22.37;100.00
25084;BME280;13075;55.682;37.564;2023-07-20T03:23:33;98158.63;;;22.86;100.00
25084;BME280;13075;55.682;37.564;2023-07-20T03:25:58;98169.06;;;22.84;100.00
25084;BME280;13075;55.682;37.564;2023-07-20T03:28:24;98162.66;;;23.28;100.00
25084;BME280;13075;55.682;37.564;2023-07-20T03:30:56;98153.66;;;24.61;89.18
25084;BME280;13075;55.682;37.564;2023-07-20T03:33:25;98170.19;;;24.73;84.95
25084;BME280;13075;55.682;37.564;2023-07-20T03:35:51;98167.31;;;24.69;84.24
25084;BME280;13075;55.682;37.564;2023-07-20T03:38:16;98163.09;;;24.89;82.35
25084;BME280;13075;55.682;37.564;2023-07-20T03:43:17;98172.97;;;24.47;83.77
25084;BME280;13075;55.682;37.564;2023-07-20T03:45:43;98165.72;;;25.15;80.01
25084;BME280;13075;55.682;37.564;2023-07-20T03:48:08;98166.72;;;24.21;84.81
25084;BME280;13075;55.682;37.564;2023-07-20T03:50:33;98165.13;;;24.20;87.22
25084;BME280;13075;55.682;37.564;2023-07-20T03:52:59;98164.31;;;24.11;88.62
25084;BME280;13075;55.682;37.564;2023-07-20T03:55:24;98168.44;;;23.83;90.96
25084;BME280;13075;55.682;37.564;2023-07-20T03:57:50;98174.25;;;24.24;88.37
25084;BME280;13075;55.682;37.564;2023-07-20T04:00:16;98177.78;;;23.99;89.26
25084;BME280;13075;55.682;37.564;2023-07-20T04:02:42;98170.28;;;24.13;89.48
25084;BME280;13075;55.682;37.564;2023-07-20T04:05:07;98170.84;;;23.84;91.37
25084;BME280;13075;55.682;37.564;2023-07-20T04:07:33;98171.72;;;24.10;91.26
25084;BME280;13075;55.682;37.564;2023-07-20T04:09:58;98173.44;;;24.06;89.62
25084;BME280;13075;55.682;37.564;2023-07-20T04:12:24;98175.22;;;24.02;90.43
25084;BME280;13075;55.682;37.564;2023-07-20T04:14:49;98181.50;;;24.46;86.81
25084;BME280;13075;55.682;37.564;2023-07-20T04:17:14;98188.72;;;24.16;86.87
25084;BME280;13075;55.682;37.564;2023-07-20T04:19:42;98180.22;;;24.43;86.66
25084;BME280;13075;55.682;37.564;2023-07-20T04:22:08;98169.59;;;24.25;88.16
25084;BME280;13075;55.682;37.564;2023-07-20T04:24:34;98170.09;;;24.44;86.97
25084;BME280;13075;55.682;37.564;2023-07-20T04:27:00;98178.44;;;24.56;85.68
25084;BME280;13075;55.682;37.564;2023-07-20T04:29:25;98183.69;;;24.87;84.92
25084;BME280;13075;55.682;37.564;2023-07-20T04:31:50;98187.47;;;24.22;87.91
25084;BME280;13075;55.682;37.564;2023-07-20T04:34:16;98186.16;;;24.20;86.32
25084;BME280;13075;55.682;37.564;2023-07-20T04:36:43;98187.09;;;24.06;89.42
25084;BME280;13075;55.682;37.564;2023-07-20T04:39:09;98184.69;;;23.96;89.52
25084;BME280;13075;55.682;37.564;2023-07-20T04:41:39;98184.47;;;23.67;92.13
25084;BME280;13075;55.682;37.564;2023-07-20T04:44:04;98188.41;;;24.09;89.68
25084;BME280;13075;55.682;37.564;2023-07-20T04:46:30;98181.63;;;24.06;89.71
25084;BME280;13075;55.682;37.564;2023-07-20T04:48:57;98179.91;;;24.28;89.80
25084;BME280;13075;55.682;37.564;2023-07-20T04:51:24;98189.38;;;24.22;89.72
25084;BME280;13075;55.682;37.564;2023-07-20T04:53:53;98183.25;;;24.50;86.95
25084;BME280;13075;55.682;37.564;2023-07-20T04:56:18;98192.56;;;24.06;89.93
25084;BME280;13075;55.682;37.564;2023-07-20T04:58:44;98190.66;;;24.07;88.29
25084;BME280;13075;55.682;37.564;2023-07-20T05:01:11;98188.25;;;24.14;87.54
25084;BME280;13075;55.682;37.564;2023-07-20T05:03:39;98188.09;;;24.19;86.62
25084;BME280;13075;55.682;37.564;2023-07-20T05:06:07;98191.63;;;24.37;85.64
25084;BME280;13075;55.682;37.564;2023-07-20T05:08:32;98192.06;;;23.79;89.99
25084;BME280;13075;55.682;37.564;2023-07-20T05:10:59;98191.63;;;24.20;87.80
25084;BME280;13075;55.682;37.564;2023-07-20T05:13:25;98186.31;;;24.40;84.95
25084;BME280;13075;55.682;37.564;2023-07-20T05:15:51;98195.47;;;24.01;85.62
25084;BME280;13075;55.682;37.564;2023-07-20T05:18:19;98191.75;;;24.66;81.72
25084;BME280;13075;55.682;37.564;2023-07-20T05:20:46;98191.28;;;24.47;82.79
25084;BME280;13075;55.682;37.564;2023-07-20T05:23:12;98194.88;;;24.39;84.68
25084;BME280;13075;55.682;37.564;2023-07-20T05:25:38;98198.72;;;24.12;83.16
25084;BME280;13075;55.682;37.564;2023-07-20T05:28:03;98193.56;;;25.17;78.15
25084;BME280;13075;55.682;37.564;2023-07-20T05:30:29;98202.69;;;24.92;78.09
25084;BME280;13075;55.682;37.564;2023-07-20T05:32:56;98204.13;;;24.98;77.87
25084;BME280;13075;55.682;37.564;2023-07-20T05:35:22;98190.47;;;24.63;77.73
25084;BME280;13075;55.682;37.564;2023-07-20T05:37:47;98200.91;;;24.70;78.31
25084;BME280;13075;55.682;37.564;2023-07-20T05:40:13;98196.88;;;24.93;78.69
25084;BME280;13075;55.682;37.564;2023-07-20T05:42:40;98199.03;;;24.62;77.60
25084;BME280;13075;55.682;37.564;2023-07-20T05:45:05;98205.25;;;24.97;76.03
25084;BME280;13075;55.682;37.564;2023-07-20T05:47:30;98195.94;;;24.89;74.10
25084;BME280;13075;55.682;37.564;2023-07-20T05:49:57;98192.94;;;25.20;73.82
25084;BME280;13075;55.682;37.564;2023-07-20T05:52:22;98196.06;;;25.39;72.13
25084;BME280;13075;55.682;37.564;2023-07-20T05:54:48;98188.94;;;25.09;72.36
25084;BME280;13075;55.682;37.564;2023-07-20T05:57:13;98191.81;;;25.59;70.23
25084;BME280;13075;55.682;37.564;2023-07-20T05:59:38;98202.28;;;25.57;68.62
25084;BME280;13075;55.682;37.564;2023-07-20T06:02:06;98198.94;;;25.51;69.63
25084;BME280;13075;55.682;37.564;2023-07-20T06:04:32;98197.97;;;25.76;67.71
25084;BME280;13075;55.682;37.564;2023-07-20T06:06:57;98195.91;;;25.73;68.76
25084;BME280;13075;55.682;37.564;2023-07-20T06:09:23;98195.63;;;25.95;67.67
25084;BME280;13075;55.682;37.564;2023-07-20T06:11:48;98196.94;;;26.19;66.64
25084;BME280;13075;55.682;37.564;2023-07-20T06:14:13;98205.81;;;26.16;67.43
25084;BME280;13075;55.682;37.564;2023-07-20T06:16:40;98212.19;;;25.99;67.18
25084;BME280;13075;55.682;37.564;2023-07-20T06:19:05;98207.63;;;25.82;65.43
25084;BME280;13075;55.682;37.564;2023-07-20T06:21:31;98219.38;;;26.12;64.24
25084;BME280;13075;55.682;37.564;2023-07-20T06:23:56;98214.00;;;25.95;64.21
25084;BME280;13075;55.682;37.564;2023-07-20T06:26:22;98205.06;;;26.07;63.82
25084;BME280;13075;55.682;37.564;2023-07-20T06:28:47;98198.81;;;26.27;63.01
25084;BME280;13075;55.682;37.564;2023-07-20T06:31:12;98211.69;;;26.47;63.09
25084;BME280;13075;55.682;37.564;2023-07-20T06:33:38;98209.78;;;26.27;61.82
25084;BME280;13075;55.682;37.564;2023-07-20T06:36:03;98215.66;;;26.37;61.07
25084;BME280;13075;55.682;37.564;2023-07-20T06:38:29;98211.31;;;26.69;60.86
25084;BME280;13075;55.682;37.564;2023-07-20T06:40:54;98199.41;;;26.98;59.66
25084;BME280;13075;55.682;37.564;2023-07-20T06:43:20;98194.94;;;28.38;55.62
25084;BME280;13075;55.682;37.564;2023-07-20T06:45:50;98194.81;;;28.07;53.89
25084;BME280;13075;55.682;37.564;2023-07-20T06:48:16;98195.59;;;27.96;54.47
25084;BME280;13075;55.682;37.564;2023-07-20T06:50:42;98200.97;;;28.16;54.76
25084;BME280;13075;55.682;37.564;2023-07-20T06:53:07;98203.25;;;28.54;53.39
25084;BME280;13075;55.682;37.564;2023-07-20T06:55:33;98206.81;;;30.61;49.37
25084;BME280;13075;55.682;37.564;2023-07-20T06:57:58;98188.38;;;34.40;41.57
25084;BME280;13075;55.682;37.564;2023-07-20T07:00:24;98194.75;;;36.80;35.79
25084;BME280;13075;55.682;37.564;2023-07-20T07:02:49;98190.19;;;39.35;31.18
25084;BME280;13075;55.682;37.564;2023-07-20T07:05:15;98188.72;;;43.10;26.61
25084;BME280;13075;55.682;37.564;2023-07-20T07:07:41;98182.31;;;44.50;24.82
25084;BME280;13075;55.682;37.564;2023-07-20T07:10:07;98188.72;;;45.74;23.42
25084;BME280;13075;55.682;37.564;2023-07-20T07:12:32;98176.91;;;48.06;20.12
25084;BME280;13075;55.682;37.564;2023-07-20T07:14:58;98182.81;;;49.14;20.00
25084;BME280;13075;55.682;37.564;2023-07-20T07:17:23;98198.50;;;48.95;18.78
25084;BME280;13075;55.682;37.564;2023-07-20T07:19:49;98198.78;;;48.83;18.26
25084;BME280;13075;55.682;37.564;2023-07-20T07:22:14;98187.19;;;50.71;17.28
25084;BME280;13075;55.682;37.564;2023-07-20T07:24:39;98190.56;;;51.01;17.77
25084;BME280;13075;55.682;37.564;2023-07-20T07:27:08;98191.22;;;42.79;21.60
25084;BME280;13075;55.682;37.564;2023-07-20T07:29:33;98178.84;;;43.78;22.02
25084;BME280;13075;55.682;37.564;2023-07-20T07:31:58;98193.63;;;47.81;19.25
25084;BME280;13075;55.682;37.564;2023-07-20T07:34:24;98185.59;;;48.27;19.24
25084;BME280;13075;55.682;37.564;2023-07-20T07:36:52;98193.28;;;48.79;18.05
25084;BME280;13075;55.682;37.564;2023-07-20T07:39:17;98181.31;;;43.88;21.33
25084;BME280;13075;55.682;37.564;2023-07-20T07:41:43;98188.75;;;47.25;18.31
25084;BME280;13075;55.682;37.564;2023-07-20T07:44:08;98187.25;;;47.71;18.97
25084;BME280;13075;55.682;37.564;2023-07-20T07:46:34;98192.41;;;49.52;17.67
25084;BME280;13075;55.682;37.564;2023-07-20T07:48:59;98192.41;;;49.17;17.72
25084;BME280;13075;55.682;37.564;2023-07-20T07:51:25;98195.88;;;51.50;16.59
25084;BME280;13075;55.682;37.564;2023-07-20T07:53:52;98184.66;;;50.27;16.53
25084;BME280;13075;55.682;37.564;2023-07-20T07:56:17;98180.28;;;52.86;15.55
25084;BME280;13075;55.682;37.564;2023-07-20T07:58:47;98184.97;;;53.28;15.00
25084;BME280;13075;55.682;37.564;2023-07-20T08:01:13;98184.44;;;54.26;14.47
25084;BME280;13075;55.682;37.564;2023-07-20T08:03:38;98179.97;;;50.50;16.84
25084;BME280;13075;55.682;37.564;2023-07-20T08:06:04;98189.22;;;52.18;15.05
25084;BME280;13075;55.682;37.564;2023-07-20T08:08:30;98185.00;;;47.51;17.72
25084;BME280;13075;55.682;37.564;2023-07-20T08:10:55;98177.47;;;47.39;18.39
25084;BME280;13075;55.682;37.564;2023-07-20T08:13:20;98177.09;;;48.41;18.00
25084;BME280;13075;55.682;37.564;2023-07-20T08:15:49;98177.31;;;50.67;16.59
25084;BME280;13075;55.682;37.564;2023-07-20T08:18:14;98182.59;;;50.28;17.05
25084;BME280;13075;55.682;37.564;2023-07-20T08:20:43;98176.00;;;46.78;18.89
25084;BME280;13075;55.682;37.564;2023-07-20T08:23:08;98172.31;;;46.96;18.24
25084;BME280;13075;55.682;37.564;2023-07-20T08:25:36;98200.31;;;43.00;20.58
25084;BME280;13075;55.682;37.564;2023-07-20T08:28:02;98187.47;;;41.51;21.79
25084;BME280;13075;55.682;37.564;2023-07-20T08:30:38;98186.63;;;42.86;21.17
25084;BME280;13075;55.682;37.564;2023-07-20T08:33:04;98194.03;;;41.29;22.73
25084;BME280;13075;55.682;37.564;2023-07-20T08:35:29;98180.75;;;40.97;22.45
25084;BME280;13075;55.682;37.564;2023-07-20T08:37:55;98189.28;;;38.21;24.60
25084;BME280;13075;55.682;37.564;2023-07-20T08:40:20;98184.69;;;37.56;25.57
25084;BME280;13075;55.682;37.564;2023-07-20T08:42:46;98182.75;;;36.91;27.23
25084;BME280;13075;55.682;37.564;2023-07-20T08:45:11;98186.69;;;36.03;27.44
25084;BME280;13075;55.682;37.564;2023-07-20T08:47:38;98186.94;;;34.85;29.54
25084;BME280;13075;55.682;37.564;2023-07-20T08:50:04;98184.66;;;35.36;29.30
25084;BME280;13075;55.682;37.564;2023-07-20T08:52:32;98191.13;;;33.75;30.90
25084;BME280;13075;55.682;37.564;2023-07-20T08:54:59;98190.94;;;33.10;32.09
25084;BME280;13075;55.682;37.564;2023-07-20T08:57:28;98189.13;;;32.88;33.11
25084;BME280;13075;55.682;37.564;2023-07-20T08:59:53;98194.88;;;33.05;34.14
25084;BME280;13075;55.682;37.564;2023-07-20T09:02:19;98196.88;;;33.08;34.03
25084;BME280;13075;55.682;37.564;2023-07-20T09:04:46;98194.88;;;32.42;34.03
25084;BME280;13075;55.682;37.564;2023-07-20T09:07:12;98186.41;;;33.35;33.35
25084;BME280;13075;55.682;37.564;2023-07-20T09:09:40;98205.06;;;33.01;34.77
25084;BME280;13075;55.682;37.564;2023-07-20T09:12:12;98194.22;;;33.63;33.78
25084;BME280;13075;55.682;37.564;2023-07-20T09:14:38;98207.53;;;33.47;33.66
25084;BME280;13075;55.682;37.564;2023-07-20T09:17:03;98201.22;;;33.50;32.86
25084;BME280;13075;55.682;37.564;2023-07-20T09:19:29;98198.19;;;32.85;34.31
25084;BME280;13075;55.682;37.564;2023-07-20T09:21:54;98208.06;;;32.86;34.31
25084;BME280;13075;55.682;37.564;2023-07-20T09:24:20;98216.41;;;31.74;35.97
25084;BME280;13075;55.682;37.564;2023-07-20T09:26:47;98220.44;;;31.54;36.86
25084;BME280;13075;55.682;37.564;2023-07-20T09:29:19;98213.47;;;31.40;37.43
25084;BME280;13075;55.682;37.564;2023-07-20T09:31:56;98206.19;;;32.30;36.78
25084;BME280;13075;55.682;37.564;2023-07-20T09:34:23;98228.75;;;31.80;37.07
25084;BME280;13075;55.682;37.564;2023-07-20T09:36:48;98210.88;;;33.22;35.13
25084;BME280;13075;55.682;37.564;2023-07-20T09:39:14;98200.91;;;34.09;34.05
25084;BME280;13075;55.682;37.564;2023-07-20T09:41:40;98212.91;;;35.28;32.36
25084;BME280;13075;55.682;37.564;2023-07-20T09:44:07;98206.66;;;33.39;33.56
25084;BME280;13075;55.682;37.564;2023-07-20T09:46:44;98207.84;;;33.01;34.75
25084;BME280;13075;55.682;37.564;2023-07-20T09:49:10;98211.16;;;32.47;36.07
25084;BME280;13075;55.682;37.564;2023-07-20T09:51:36;98213.59;;;32.82;35.37
25084;BME280;13075;55.682;37.564;2023-07-20T09:54:02;98207.38;;;33.73;34.29
25084;BME280;13075;55.682;37.564;2023-07-20T09:56:28;98200.88;;;33.55;33.79
25084;BME280;13075;55.682;37.564;2023-07-20T09:58:55;98200.97;;;32.88;34.55
25084;BME280;13075;55.682;37.564;2023-07-20T10:01:21;98198.84;;;33.52;34.53
25084;BME280;13075;55.682;37.564;2023-07-20T10:03:47;98204.47;;;35.03;33.28
25084;BME280;13075;55.682;37.564;2023-07-20T10:06:15;98207.94;;;33.96;33.36
25084;BME280;13075;55.682;37.564;2023-07-20T10:08:43;98226.91;;;33.43;34.42
25084;BME280;13075;55.682;37.564;2023-07-20T10:11:12;98232.69;;;32.91;35.25
25084;BME280;13075;55.682;37.564;2023-07-20T10:13:40;98225.31;;;32.69;36.50
25084;BME280;13075;55.682;37.564;2023-07-20T10:18:49;98221.19;;;31.51;38.15
25084;BME280;13075;55.682;37.564;2023-07-20T10:21:19;98218.91;;;30.92;39.86
25084;BME280;13075;55.682;37.564;2023-07-20T10:23:45;98225.06;;;30.85;40.83
25084;BME280;13075;55.682;37.564;2023-07-20T10:26:11;98220.25;;;30.82;41.52
25084;BME280;13075;55.682;37.564;2023-07-20T10:28:38;98221.88;;;31.02;42.35
25084;BME280;13075;55.682;37.564;2023-07-20T10:31:03;98232.06;;;30.79;43.20
25084;BME280;13075;55.682;37.564;2023-07-20T10:33:29;98224.56;;;31.21;43.37
25084;BME280;13075;55.682;37.564;2023-07-20T10:35:55;98230.28;;;30.33;45.40
25084;BME280;13075;55.682;37.564;2023-07-20T10:43:47;98230.22;;;30.87;44.23
25084;BME280;13075;55.682;37.564;2023-07-20T10:46:13;98218.22;;;30.98;44.98
25084;BME280;13075;55.682;37.564;2023-07-20T10:51:22;98220.91;;;30.02;45.16
25084;BME280;13075;55.682;37.564;2023-07-20T10:53:48;98223.53;;;29.80;46.32
25084;BME280;13075;55.682;37.564;2023-07-20T10:56:15;98230.81;;;29.41;46.93
25084;BME280;13075;55.682;37.564;2023-07-20T10:58:44;98225.22;;;29.53;47.31
25084;BME280;13075;55.682;37.564;2023-07-20T11:01:13;98226.56;;;29.43;47.90
25084;BME280;13075;55.682;37.564;2023-07-20T11:03:39;98222.44;;;29.69;47.35
25084;BME280;13075;55.682;37.564;2023-07-20T11:13:55;98279.91;;;29.08;52.25
25084;BME280;13075;55.682;37.564;2023-07-20T11:16:33;98295.34;;;27.48;89.43
25084;BME280;13075;55.682;37.564;2023-07-20T11:18:59;98289.56;;;26.34;93.29
25084;BME280;13075;55.682;37.564;2023-07-20T11:21:25;98295.09;;;27.08;95.38
25084;BME280;13075;55.682;37.564;2023-07-20T11:23:52;98283.78;;;27.09;97.85
25084;BME280;13075;55.682;37.564;2023-07-20T11:26:17;98288.81;;;27.52;89.95
25084;BME280;13075;55.682;37.564;2023-07-20T11:28:48;98282.09;;;27.98;93.82
25084;BME280;13075;55.682;37.564;2023-07-20T11:31:14;98281.25;;;28.34;94.51
25084;BME280;13075;55.682;37.564;2023-07-20T11:33:41;98272.41;;;28.53;90.12
25084;BME280;13075;55.682;37.564;2023-07-20T11:36:08;98278.91;;;28.60;91.31
25084;BME280;13075;55.682;37.564;2023-07-20T11:38:33;98273.84;;;28.74;98.85
25084;BME280;13075;55.682;37.564;2023-07-20T11:40:59;98264.81;;;29.17;94.86
25084;BME280;13075;55.682;37.564;2023-07-20T11:43:24;98265.06;;;29.12;94.09
25084;BME280;13075;55.682;37.564;2023-07-20T11:45:51;98258.25;;;29.22;83.54
25084;BME280;13075;55.682;37.564;2023-07-20T11:48:17;98261.03;;;28.94;89.51
25084;BME280;13075;55.682;37.564;2023-07-20T11:50:43;98257.78;;;28.76;90.82
25084;BME280;13075;55.682;37.564;2023-07-20T11:53:08;98250.22;;;28.73;91.62
25084;BME280;13075;55.682;37.564;2023-07-20T11:55:34;98253.78;;;28.74;83.47
25084;BME280;13075;55.682;37.564;2023-07-20T12:00:28;98249.81;;;28.07;81.17
25084;BME280;13075;55.682;37.564;2023-07-20T12:02:53;98264.09;;;28.01;77.36
25084;BME280;13075;55.682;37.564;2023-07-20T12:05:19;98266.75;;;27.73;82.32
25084;BME280;13075;55.682;37.564;2023-07-20T12:07:47;98264.53;;;27.42;79.89
25084;BME280;13075;55.682;37.564;2023-07-20T12:10:15;98273.47;;;28.36;79.50
25084;BME280;13075;55.682;37.564;2023-07-20T12:12:41;98276.94;;;27.85;85.68
25084;BME280;13075;55.682;37.564;2023-07-20T12:15:17;98263.22;;;28.88;80.91
25084;BME280;13075;55.682;37.564;2023-07-20T12:17:46;98283.00;;;28.78;74.14
25084;BME280;13075;55.682;37.564;2023-07-20T12:20:12;98277.13;;;28.40;77.75
25084;BME280;13075;55.682;37.564;2023-07-20T12:22:40;98281.44;;;28.65;77.24
25084;BME280;13075;55.682;37.564;2023-07-20T12:25:06;98275.47;;;28.11;75.91
25084;BME280;13075;55.682;37.564;2023-07-20T12:27:35;98282.50;;;28.36;76.84
25084;BME280;13075;55.682;37.564;2023-07-20T12:30:00;98281.50;;;28.41;76.94
25084;BME280;13075;55.682;37.564;2023-07-20T12:32:25;98265.16;;;28.20;75.18
25084;BME280;13075;55.682;37.564;2023-07-20T12:34:51;98279.69;;;28.09;70.53
25084;BME280;13075;55.682;37.564;2023-07-20T12:37:19;98281.41;;;27.77;76.29
25084;BME280;13075;55.682;37.564;2023-07-20T12:39:45;98275.69;;;27.94;75.91
25084;BME280;13075;55.682;37.564;2023-07-20T12:42:12;98271.78;;;28.19;67.56
25084;BME280;13075;55.682;37.564;2023-07-20T12:44:37;98272.47;;;27.92;66.79
25084;BME280;13075;55.682;37.564;2023-07-20T12:47:03;98261.59;;;27.71;64.98
25084;BME280;13075;55.682;37.564;2023-07-20T12:49:28;98267.66;;;28.25;62.78
25084;BME280;13075;55.682;37.564;2023-07-20T12:51:54;98265.00;;;28.29;65.21
25084;BME280;13075;55.682;37.564;2023-07-20T12:54:19;98272.25;;;28.73;61.05
25084;BME280;13075;55.682;37.564;2023-07-20T12:56:44;98262.53;;;28.64;60.02
25084;BME280;13075;55.682;37.564;2023-07-20T12:59:10;98262.44;;;28.48;60.76
25084;BME280;13075;55.682;37.564;2023-07-20T13:01:35;98262.41;;;28.72;60.60
25084;BME280;13075;55.682;37.564;2023-07-20T13:04:03;98264.50;;;28.51;63.33
25084;BME280;13075;55.682;37.564;2023-07-20T13:06:28;98263.44;;;28.68;61.68
25084;BME280;13075;55.682;37.564;2023-07-20T13:08:54;98255.66;;;28.70;62.25
25084;BME280;13075;55.682;37.564;2023-07-20T13:11:21;98258.78;;;28.84;61.89
25084;BME280;13075;55.682;37.564;2023-07-20T13:13:47;98249.13;;;28.90;61.50
25084;BME280;13075;55.682;37.564;2023-07-20T13:16:13;98241.44;;;28.56;59.63